Thunderstorms From: 26-05-2018 21:24 Until: 27-05-2018 15:00 warning for: Thunderstorms Level: Yellow info button

Although rather usual in this region, locally or potentially dangerous phenomena are expected. (such as local winds, summer thunderstorms, rising streams or high waves) Be aware and pay attention to the latest weather updates, especially if you carry out activities exposed to weather or close to a stream or shoreline. 


Meteo18 Weather Cam more information Meteo18 Weather Cam


warning for Thunderstorms more information blitzortung!


Rain radar more information rain snow radar


Visit our other weather sites:

Template documentation
and downloads

And another site



Weather Underground History page Text

Daily Summary for February 7, 2016 Units:  Metric    English   Both
« Previous Day
Next Day »
Daily Weekly Monthly Yearly Custom
  High: Low: Average:
Temperature: -17.8 °C -14.7 °C -13.4 °C
Dew Point: -17.8 °C -15.5 °C -14.7 °C
Humidity: Humidity % 68 % 86 %
Wind Speed: 0 km/h 0 km/h 7.6 km/h
Wind Gust: 0 km/h - -
Wind:- - SW
Pressure: 0 hPa 33880.3 hPa -
Precipitation: 187.96 mm    
Historical Graphs
 
 
Tabular Data for February 7, 2016
Time Temperature Dew Point Pressure Wind Wind Speed Wind Gust Humidity Rainfall Rate (Hourly)
-17.8 °C -17.8 °C 0 hPa Calm     Humidity % 0 mm
00:02 -12.4 °C -14.4 °C 33900.6 hPa SW 2.6 km/h 7.7 km/h 78 % 0 mm
00:07 -12.3 °C -14.4 °C 33900.6 hPa WSW 2.6 km/h 5.1 km/h 78 % 0 mm
00:12 -12.3 °C -14.3 °C 33890.5 hPa West 2.6 km/h 7.7 km/h 78 % 0 mm
00:17 -12.3 °C -14.3 °C 33890.5 hPa SW 2.6 km/h 10.3 km/h 78 % 0 mm
00:22 -12.3 °C -14.3 °C 33890.5 hPa WSW 2.6 km/h 15.6 km/h 78 % 0 mm
00:27 -12.3 °C -14.2 °C 33890.5 hPa West 2.6 km/h 15.6 km/h 79 % 0 mm
00:32 -12.3 °C -14.2 °C 33890.5 hPa West 2.6 km/h 7.7 km/h 79 % 0 mm
00:42 -12.2 °C -14 °C 33890.5 hPa SSW 5.1 km/h 10.3 km/h 80 % 0 mm
00:47 -12.2 °C -14 °C 33890.5 hPa Calm   10.3 km/h 80 % 0 mm
00:57 -12.3 °C -14.1 °C 33890.5 hPa West 2.6 km/h 10.3 km/h 81 % 0 mm
01:02 -12.3 °C -13.9 °C 33890.5 hPa West 2.6 km/h 7.7 km/h 82 % 0 mm
01:07 -12.3 °C -13.9 °C 33890.5 hPa WSW 2.6 km/h 7.7 km/h 82 % 0 mm
01:12 -12.3 °C -13.9 °C 33890.5 hPa Calm   7.7 km/h 82 % 0 mm
01:17 -12.3 °C -13.9 °C 33890.5 hPa West 2.6 km/h 7.7 km/h 82 % 0 mm
01:22 -12.3 °C -13.9 °C 33880.3 hPa Calm   5.1 km/h 82 % 0 mm
01:27 -12.3 °C -13.8 °C 33880.3 hPa SW 2.6 km/h 5.1 km/h 83 % 0 mm
01:37 -12.4 °C -13.8 °C 33880.3 hPa Calm   5.1 km/h 85 % 0 mm
01:42 -12.5 °C -13.8 °C 33890.5 hPa WSW 5.1 km/h 7.7 km/h 85 % 0 mm
01:47 -12.6 °C -13.7 °C 33890.5 hPa Calm   7.7 km/h 87 % 7.62 mm
01:52 -12.6 °C -13.8 °C 33890.5 hPa SW 5.1 km/h 7.7 km/h 87 % 7.62 mm
01:57 -12.7 °C -13.7 °C 33880.3 hPa WSW 15.6 km/h 15.6 km/h 88 % 7.62 mm
02:02 -12.6 °C -13.7 °C 33890.5 hPa WSW 10.3 km/h 25.9 km/h 87 % 12.7 mm
02:07 -12.6 °C -13.7 °C 33890.5 hPa East 5.1 km/h 25.9 km/h 87 % 12.7 mm
02:17 -12.6 °C -13.7 °C 33890.5 hPa SW 5.1 km/h 20.8 km/h 88 % 20.32 mm
02:27 -12.6 °C -13.6 °C 33890.5 hPa WSW 7.7 km/h 12.9 km/h 88 % 25.4 mm
02:32 -12.5 °C -13.6 °C 33890.5 hPa SW 12.9 km/h 15.6 km/h 88 % 33.02 mm
02:37 -12.5 °C -13.6 °C 33890.5 hPa WSW 5.1 km/h 20.8 km/h 88 % 33.02 mm
02:42 -12.4 °C -13.5 °C 33890.5 hPa SSW 12.9 km/h 20.8 km/h 88 % 38.1 mm
02:47 -12.4 °C -13.5 °C 33890.5 hPa SW 15.6 km/h 25.9 km/h 88 % 33.02 mm
02:52 -12.4 °C -13.6 °C 33900.6 hPa SE 10.3 km/h 25.9 km/h 87 % 38.1 mm
02:57 -12.4 °C -13.6 °C 33900.6 hPa South 15.6 km/h 38.8 km/h 87 % 38.1 mm
03:02 -12.4 °C -13.6 °C 33900.6 hPa SW 18.2 km/h 38.8 km/h 87 % 38.1 mm
03:07 -12.4 °C -13.6 °C 33900.6 hPa SW 10.3 km/h 38.8 km/h 87 % 38.1 mm
03:12 -12.4 °C -13.6 °C 33900.6 hPa SW 25.9 km/h 36.2 km/h 87 % 38.1 mm
03:17 -12.5 °C -13.6 °C 33900.6 hPa SW 31.1 km/h 38.8 km/h 88 % 33.02 mm
03:22 -12.6 °C -13.6 °C 33900.6 hPa WSW 12.9 km/h 38.8 km/h 88 % 33.02 mm
03:27 -12.6 °C -13.7 °C 33900.6 hPa WSW 18.2 km/h 36.2 km/h 88 % 33.02 mm
03:37 -12.7 °C -13.6 °C 33900.6 hPa SW 25.9 km/h 46.7 km/h 89 % 25.4 mm
03:52 -13.2 °C -14.2 °C 33914.2 hPa WSW 15.6 km/h 44.1 km/h 89 % 45.72 mm
03:57 -13.4 °C -14.2 °C 33924.3 hPa West 7.7 km/h 41.4 km/h 91 % 45.72 mm
04:02 -13.4 °C -14.1 °C 33924.3 hPa SW 18.2 km/h 41.4 km/h 92 % 58.42 mm
04:07 -13.5 °C -14.1 °C 33924.3 hPa SW 5.1 km/h 36.2 km/h 93 % 50.8 mm
04:12 -13.5 °C -14.1 °C 33924.3 hPa SW 10.3 km/h 33.6 km/h 93 % 58.42 mm
04:17 -13.6 °C -14.2 °C 33924.3 hPa West 5.1 km/h 31.1 km/h 93 % 58.42 mm
04:22 -13.6 °C -14.2 °C 33924.3 hPa WSW 5.1 km/h 25.9 km/h 93 % 58.42 mm
04:27 -13.6 °C -14.2 °C 33924.3 hPa WSW 2.6 km/h 23.3 km/h 93 % 58.42 mm
04:42 -13.7 °C -14.3 °C 33924.3 hPa SW 7.7 km/h 28.5 km/h 93 % 63.5 mm
04:47 -13.7 °C -14.2 °C 33937.9 hPa WSW 7.7 km/h 28.5 km/h 94 % 58.42 mm
04:52 -13.7 °C -14.2 °C 33937.9 hPa SW 7.7 km/h 28.5 km/h 94 % 45.72 mm
04:57 -13.7 °C -14.2 °C 33937.9 hPa SW 10.3 km/h 25.9 km/h 94 % 38.1 mm
05:02 -13.7 °C -14.2 °C 33937.9 hPa SW 7.7 km/h 20.8 km/h 94 % 38.1 mm
05:12 -13.7 °C -14.2 °C 33937.9 hPa SW 7.7 km/h 25.9 km/h 94 % 38.1 mm
05:17 -13.7 °C -14.2 °C 33937.9 hPa SW 20.8 km/h 25.9 km/h 94 % 38.1 mm
05:22 -13.7 °C -14.2 °C 33948 hPa SW 12.9 km/h 23.3 km/h 94 % 38.1 mm
05:27 -13.7 °C -14.2 °C 33948 hPa West 7.7 km/h 31.1 km/h 94 % 33.02 mm
05:32 -13.8 °C -14.3 °C 33948 hPa SW 10.3 km/h 31.1 km/h 94 % 33.02 mm
05:37 -13.8 °C -14.3 °C 33948 hPa WSW 7.7 km/h 31.1 km/h 94 % 38.1 mm
05:42 -13.8 °C -14.3 °C 33948 hPa SW 18.2 km/h 25.9 km/h 94 % 33.02 mm
05:47 -13.8 °C -14.3 °C 33948 hPa WSW 15.6 km/h 23.3 km/h 94 % 33.02 mm
05:52 -13.8 °C -14.3 °C 33958.2 hPa WSW 2.6 km/h 25.9 km/h 94 % 25.4 mm
05:57 -13.8 °C -14.3 °C 33958.2 hPa SW 12.9 km/h 25.9 km/h 94 % 33.02 mm
06:02 -13.8 °C -14.3 °C 33958.2 hPa Calm   18.2 km/h 94 % 25.4 mm
06:07 -13.8 °C -14.2 °C 33958.2 hPa SW 7.7 km/h 20.8 km/h 95 % 25.4 mm
06:12 -13.8 °C -14.2 °C 33948 hPa WSW 10.3 km/h 20.8 km/h 95 % 25.4 mm
06:17 -13.8 °C -14.2 °C 33948 hPa SSW 12.9 km/h 20.8 km/h 95 % 25.4 mm
06:22 -13.8 °C -14.2 °C 33948 hPa SSW 2.6 km/h 23.3 km/h 95 % 20.32 mm
06:32 -13.9 °C -14.3 °C 33948 hPa East 2.6 km/h 23.3 km/h 95 % 20.32 mm
06:37 -13.8 °C -14.3 °C 33948 hPa SW 2.6 km/h 15.6 km/h 94 % 12.7 mm
06:47 -13.8 °C -14.3 °C 33958.2 hPa SW 5.1 km/h 33.6 km/h 94 % 12.7 mm
06:52 -13.8 °C -14.3 °C 33958.2 hPa SSW 5.1 km/h 33.6 km/h 94 % 12.7 mm
07:02 -13.8 °C -14.3 °C 33958.2 hPa SW 2.6 km/h 18.2 km/h 94 % 12.7 mm
07:12 -13.9 °C -14.4 °C 33958.2 hPa SSW 2.6 km/h 18.2 km/h 94 % 7.62 mm
07:17 -13.9 °C -14.4 °C 33958.2 hPa SW 2.6 km/h 15.6 km/h 94 % 7.62 mm
07:22 -13.9 °C -14.4 °C 33971.7 hPa WSW 10.3 km/h 23.3 km/h 94 % 0 mm
07:27 -13.9 °C -14.4 °C 33971.7 hPa SW 2.6 km/h 23.3 km/h 94 % 0 mm
07:32 -13.9 °C -14.4 °C 33971.7 hPa SW 5.1 km/h 23.3 km/h 94 % 0 mm
07:37 -13.9 °C -14.4 °C 33971.7 hPa WSW 2.6 km/h 20.8 km/h 94 % 0 mm
07:42 -13.9 °C -14.4 °C 33971.7 hPa Calm   20.8 km/h 94 % 0 mm
07:52 -13.9 °C -14.4 °C 33981.9 hPa SW 5.1 km/h 31.1 km/h 94 % 0 mm
07:57 -13.9 °C -14.4 °C 33981.9 hPa SW 2.6 km/h 31.1 km/h 94 % 0 mm
08:02 -13.9 °C -14.4 °C 33992.1 hPa SSW 2.6 km/h 31.1 km/h 94 % 0 mm
08:07 -13.9 °C -14.4 °C 33992.1 hPa Calm   23.3 km/h 94 % 0 mm
08:12 -13.9 °C -14.6 °C 33992.1 hPa NNW 7.7 km/h 23.3 km/h 92 % 0 mm
08:17 -14 °C -14.8 °C 33992.1 hPa SSW 5.1 km/h 28.5 km/h 91 % 7.62 mm
08:22 -14.1 °C -14.8 °C 33992.1 hPa SSW 10.3 km/h 28.5 km/h 91 % 7.62 mm
08:32 -14.1 °C -14.8 °C 34005.6 hPa WSW 2.6 km/h 12.9 km/h 92 % 7.62 mm
08:37 -14.2 °C -14.8 °C 34005.6 hPa SSE 2.6 km/h 12.9 km/h 92 % 7.62 mm
08:42 -14.2 °C -14.9 °C 34015.8 hPa WSW 7.7 km/h 15.6 km/h 92 % 7.62 mm
08:52 -14.2 °C -14.8 °C 34015.8 hPa SW 5.1 km/h 12.9 km/h 93 % 7.62 mm
09:02 -14.1 °C -14.6 °C 34029.3 hPa Calm   15.6 km/h 94 % 7.62 mm
09:07 -14.1 °C -14.6 °C 34029.3 hPa SW 10.3 km/h 15.6 km/h 94 % 7.62 mm
09:12 -14.1 °C -14.6 °C 34029.3 hPa SW 5.1 km/h 18.2 km/h 94 % 0 mm
09:17 -14 °C -14.5 °C 34039.5 hPa SW 5.1 km/h 18.2 km/h 94 % 0 mm
09:22 -14 °C -14.5 °C 34039.5 hPa SW 7.7 km/h 18.2 km/h 94 % 0 mm
09:27 -13.9 °C -14.4 °C 34049.6 hPa SW 5.1 km/h 15.6 km/h 94 % 0 mm
09:32 -13.9 °C -14.6 °C 34039.5 hPa SSW 2.6 km/h 20.8 km/h 93 % 0 mm
09:37 -13.9 °C -14.5 °C 34049.6 hPa SE 5.1 km/h 20.8 km/h 93 % 0 mm
09:42 -13.9 °C -14.5 °C 34049.6 hPa SSW 2.6 km/h 20.8 km/h 93 % 0 mm
09:47 -13.8 °C -14.5 °C 34049.6 hPa Calm   15.6 km/h 92 % 0 mm
09:52 -13.8 °C -14.5 °C 34049.6 hPa SSW 5.1 km/h 18.2 km/h 92 % 0 mm
09:57 -13.8 °C -14.5 °C 34049.6 hPa WSW 5.1 km/h 20.8 km/h 92 % 0 mm
10:02 -13.8 °C -14.5 °C 34049.6 hPa SW 2.6 km/h 20.8 km/h 92 % 0 mm
10:07 -13.8 °C -14.5 °C 34049.6 hPa SW 5.1 km/h 20.8 km/h 92 % 0 mm
10:12 -13.8 °C -14.5 °C 34049.6 hPa SW 5.1 km/h 20.8 km/h 92 % 0 mm
10:17 -13.8 °C -14.5 °C 34049.6 hPa SW 12.9 km/h 23.3 km/h 92 % 0 mm
10:22 -13.8 °C -14.6 °C 34049.6 hPa SSW 15.6 km/h 23.3 km/h 91 % 0 mm
10:27 -13.8 °C -14.4 °C 34063.2 hPa SSW 5.1 km/h 23.3 km/h 92 % 0 mm
10:32 -13.7 °C -14.4 °C 34063.2 hPa WSW 2.6 km/h 23.3 km/h 91 % 0 mm
10:37 -13.6 °C -14.4 °C 34063.2 hPa SW 5.1 km/h 18.2 km/h 90 % 0 mm
10:42 -13.6 °C -14.6 °C 34073.3 hPa WSW 2.6 km/h 23.3 km/h 89 % 0 mm
10:47 -13.6 °C -14.5 °C 34073.3 hPa SW 5.1 km/h 23.3 km/h 89 % 0 mm
10:52 -13.6 °C -14.5 °C 34073.3 hPa West 7.7 km/h 20.8 km/h 89 % 0 mm
10:57 -13.5 °C -14.6 °C 34073.3 hPa SW 15.6 km/h 28.5 km/h 88 % 0 mm
11:07 -13.3 °C -14.4 °C 34086.9 hPa WSW 2.6 km/h 28.5 km/h 88 % 0 mm
11:12 -13.3 °C -14.5 °C 34086.9 hPa WSW 10.3 km/h 28.5 km/h 86 % 0 mm
11:17 -13.3 °C -14.4 °C 34086.9 hPa NW 2.6 km/h 28.5 km/h 87 % 0 mm
11:22 -13.3 °C -14.4 °C 34097 hPa SSW 10.3 km/h 25.9 km/h 87 % 0 mm
11:27 -13.3 °C -14.6 °C 34097 hPa WSW 5.1 km/h 25.9 km/h 85 % 0 mm
11:32 -13.2 °C -14.3 °C 34097 hPa WSW 2.6 km/h 23.3 km/h 87 % 0 mm
11:37 -13.2 °C -14.3 °C 34097 hPa South 5.1 km/h 23.3 km/h 87 % 0 mm
11:52 -13.1 °C -14.6 °C 34107.2 hPa WSW 15.6 km/h 25.9 km/h 83 % 0 mm
11:57 -13.1 °C -14.5 °C 34107.2 hPa SW 20.8 km/h 28.5 km/h 84 % 0 mm
12:02 -13 °C -14.4 °C 34107.2 hPa West 2.6 km/h 28.5 km/h 84 % 0 mm
12:07 -12.8 °C -14.3 °C 34120.7 hPa WSW 5.1 km/h 28.5 km/h 83 % 0 mm
12:12 -12.9 °C -14.4 °C 34120.7 hPa SW 7.7 km/h 23.3 km/h 83 % 0 mm
12:17 -12.9 °C -14.5 °C 34120.7 hPa Calm   25.9 km/h 82 % 0 mm
12:22 -13 °C -14.6 °C 34120.7 hPa WSW 7.7 km/h 25.9 km/h 82 % 0 mm
12:27 -13.1 °C -14.6 °C 34120.7 hPa SSW 5.1 km/h 25.9 km/h 83 % 0 mm
12:32 -13.1 °C -14.6 °C 34120.7 hPa Calm   18.2 km/h 83 % 0 mm
12:42 -12.4 °C -14.3 °C 34120.7 hPa SW 18.2 km/h 18.2 km/h 80 % 0 mm
12:47 -12.4 °C -14.6 °C 34120.7 hPa SW 7.7 km/h 25.9 km/h 77 % 0 mm
12:52 -12.4 °C -14.6 °C 34120.7 hPa SW 18.2 km/h 28.5 km/h 77 % 0 mm
13:02 -12.3 °C -14.8 °C 34130.9 hPa SW 20.8 km/h 36.2 km/h 74 % 0 mm
13:07 -12.3 °C -14.7 °C 34144.4 hPa SW 18.2 km/h 36.2 km/h 75 % 0 mm
13:12 -12.3 °C -14.8 °C 34144.4 hPa WSW 20.8 km/h 31.1 km/h 74 % 0 mm
13:17 -12.4 °C -14.8 °C 34144.4 hPa SW 12.9 km/h 38.8 km/h 74 % 0 mm
13:22 -12.4 °C -15 °C 34144.4 hPa SW 7.7 km/h 38.8 km/h 73 % 0 mm
13:27 -12.5 °C -14.8 °C 34144.4 hPa WSW 7.7 km/h 33.6 km/h 75 % 0 mm
13:32 -12.6 °C -15 °C 34144.4 hPa SSW 5.1 km/h 20.8 km/h 74 % 0 mm
13:37 -12.6 °C -15.1 °C 34144.4 hPa SW 7.7 km/h 20.8 km/h 74 % 0 mm
13:42 -12.6 °C -14.8 °C 34144.4 hPa SW 2.6 km/h 23.3 km/h 76 % 0 mm
13:52 -12.2 °C -14.7 °C 34130.9 hPa South 10.3 km/h 23.3 km/h 73 % 0 mm
13:57 -12.1 °C -14.7 °C 34144.4 hPa SSW 7.7 km/h 31.1 km/h 73 % 0 mm
14:02 -12.1 °C -14.9 °C 34144.4 hPa WSW 7.7 km/h 31.1 km/h 70 % 0 mm
14:07 -12.3 °C -15.1 °C 34144.4 hPa SW 12.9 km/h 31.1 km/h 71 % 0 mm
14:17 -12.3 °C -14.9 °C 34144.4 hPa SE 10.3 km/h 28.5 km/h 73 % 0 mm
14:22 -12.4 °C -14.9 °C 34144.4 hPa WSW 12.9 km/h 25.9 km/h 73 % 0 mm
14:27 -12.4 °C -15.5 °C 34144.4 hPa SW 18.2 km/h 23.3 km/h 68 % 0 mm
14:32 -12.4 °C -15.4 °C 34144.4 hPa SW 12.9 km/h 33.6 km/h 69 % 0 mm
14:37 -12.2 °C -15.1 °C 34144.4 hPa SW 7.7 km/h 33.6 km/h 70 % 0 mm
14:42 -12.1 °C -15.2 °C 34144.4 hPa WSW 23.3 km/h 33.6 km/h 68 % 0 mm
14:47 -12.1 °C -15.1 °C 34144.4 hPa WSW 10.3 km/h 33.6 km/h 69 % 0 mm
14:52 -12.1 °C -15.2 °C 34144.4 hPa WSW 5.1 km/h 33.6 km/h 68 % 0 mm
14:57 -12.1 °C -15.2 °C 34144.4 hPa WSW 12.9 km/h 33.6 km/h 68 % 0 mm
15:02 -12.2 °C -15.3 °C 34144.4 hPa SW 12.9 km/h 31.1 km/h 68 % 0 mm
15:07 -12.2 °C -15 °C 34144.4 hPa SW 15.6 km/h 31.1 km/h 71 % 0 mm
15:12 -12.3 °C -15.1 °C 34154.6 hPa SW 12.9 km/h 31.1 km/h 71 % 0 mm
15:17 -12.4 °C -14.9 °C 34154.6 hPa WSW 10.3 km/h 28.5 km/h 73 % 0 mm
15:27 -12.6 °C -15.1 °C 34154.6 hPa SSW 10.3 km/h 25.9 km/h 74 % 0 mm
15:32 -12.7 °C -14.9 °C 34164.7 hPa Calm   23.3 km/h 76 % 0 mm
15:37 -12.8 °C -14.8 °C 34164.7 hPa SW 2.6 km/h 18.2 km/h 78 % 0 mm
15:42 -12.8 °C -14.6 °C 34164.7 hPa SW 2.6 km/h 20.8 km/h 81 % 0 mm
15:47 -12.8 °C -14.7 °C 34164.7 hPa SSW 2.6 km/h 20.8 km/h 79 % 7.62 mm
15:52 -12.8 °C -15.1 °C 34164.7 hPa South 7.7 km/h 12.9 km/h 76 % 7.62 mm
15:57 -12.9 °C -15.4 °C 34164.7 hPa WSW 5.1 km/h 23.3 km/h 74 % 7.62 mm
16:02 -12.9 °C -15.2 °C 34164.7 hPa South 20.8 km/h 23.3 km/h 76 % 7.62 mm
16:07 -12.9 °C -15.2 °C 34164.7 hPa SW 10.3 km/h 23.3 km/h 76 % 7.62 mm
16:12 -12.9 °C -15.1 °C 34164.7 hPa SW 5.1 km/h 20.8 km/h 77 % 7.62 mm
16:17 -12.9 °C -15.2 °C 34178.3 hPa SW 7.7 km/h 20.8 km/h 76 % 7.62 mm
16:22 -12.9 °C -15.2 °C 34164.7 hPa SW 15.6 km/h 18.2 km/h 75 % 7.62 mm
16:32 -12.7 °C -15.2 °C 34178.3 hPa SW 7.7 km/h 20.8 km/h 74 % 7.62 mm
16:37 -12.7 °C -15.1 °C 34178.3 hPa Calm   20.8 km/h 74 % 7.62 mm
16:42 -12.7 °C -15.2 °C 34178.3 hPa WSW 2.6 km/h 20.8 km/h 74 % 0 mm
16:47 -12.7 °C -15.3 °C 34178.3 hPa WSW 10.3 km/h 33.6 km/h 73 % 0 mm
16:57 -12.8 °C -15.4 °C 34178.3 hPa West 7.7 km/h 33.6 km/h 73 % 0 mm
17:02 -13 °C -15.2 °C 34178.3 hPa WSW 7.7 km/h 25.9 km/h 76 % 0 mm
17:12 -13.4 °C -15 °C 34188.4 hPa South 5.1 km/h 25.9 km/h 82 % 0 mm
17:17 -13.4 °C -14.9 °C 34188.4 hPa SW 2.6 km/h 25.9 km/h 83 % 0 mm
17:22 -13.4 °C -15 °C 34188.4 hPa WSW 7.7 km/h 20.8 km/h 82 % 0 mm
17:27 -13.4 °C -15 °C 34188.4 hPa WSW 12.9 km/h 23.3 km/h 82 % 0 mm
17:32 -13.4 °C -15.1 °C 34188.4 hPa SW 10.3 km/h 33.6 km/h 82 % 0 mm
17:37 -13.5 °C -15 °C 34188.4 hPa WSW 7.7 km/h 33.6 km/h 83 % 0 mm
17:42 -13.7 °C -15 °C 34198.6 hPa South 10.3 km/h 28.5 km/h 85 % 0 mm
17:47 -13.7 °C -14.9 °C 34198.6 hPa West 7.7 km/h 28.5 km/h 86 % 0 mm
17:52 -13.8 °C -15 °C 34198.6 hPa SW 10.3 km/h 28.5 km/h 86 % 0 mm
17:57 -13.8 °C -15.1 °C 34198.6 hPa SW 10.3 km/h 18.2 km/h 86 % 0 mm
18:02 -13.8 °C -15 °C 34198.6 hPa SW 20.8 km/h 20.8 km/h 86 % 0 mm
18:07 -13.8 °C -15.1 °C 34212.1 hPa SW 15.6 km/h 31.1 km/h 85 % 0 mm
18:12 -13.8 °C -15.2 °C 34212.1 hPa SW 5.1 km/h 31.1 km/h 85 % 0 mm
18:17 -13.9 °C -15.2 °C 34212.1 hPa WSW 5.1 km/h 28.5 km/h 86 % 0 mm
18:27 -13.9 °C -15.2 °C 34212.1 hPa WSW 5.1 km/h 18.2 km/h 86 % 0 mm
18:42 -13.9 °C -15.1 °C 34222.3 hPa SW 7.7 km/h 20.8 km/h 86 % 0 mm
18:47 -14 °C -15.1 °C 34222.3 hPa SW 7.7 km/h 20.8 km/h 87 % 0 mm
18:52 -14.1 °C -15.2 °C 34222.3 hPa SW 5.1 km/h 15.6 km/h 87 % 0 mm
19:02 -14.2 °C -15.2 °C 34222.3 hPa SW 5.1 km/h 15.6 km/h 88 % 0 mm
19:07 -14.3 °C -15.2 °C 34235.8 hPa SW 5.1 km/h 15.6 km/h 89 % 0 mm
19:12 -14.3 °C -15.2 °C 34235.8 hPa SSE 5.1 km/h 15.6 km/h 89 % 0 mm
19:17 -14.3 °C -15.3 °C 34235.8 hPa Calm   12.9 km/h 88 % 0 mm
19:22 -14.3 °C -15.3 °C 34235.8 hPa SW 5.1 km/h 12.9 km/h 88 % 0 mm
19:27 -14.2 °C -15.2 °C 34235.8 hPa WSW 2.6 km/h 12.9 km/h 88 % 0 mm
19:32 -14.3 °C -15.4 °C 34235.8 hPa SW 15.6 km/h 15.6 km/h 87 % 0 mm
19:39 -14.3 °C -15.4 °C 34235.8 hPa SSW 2.6 km/h 20.8 km/h 87 % 0 mm
19:47 -14.4 °C -15.4 °C 34235.8 hPa South 7.7 km/h 20.8 km/h 88 % 0 mm
19:52 -14.3 °C -15.3 °C 34235.8 hPa SSW 5.1 km/h 12.9 km/h 88 % 0 mm
19:57 -14.3 °C -15.3 °C 34235.8 hPa SW 7.7 km/h 15.6 km/h 88 % 0 mm
20:02 -14.3 °C -15.3 °C 34235.8 hPa SSW 7.7 km/h 15.6 km/h 88 % 0 mm
20:07 -14.3 °C -15.3 °C 34235.8 hPa SW 5.1 km/h 15.6 km/h 88 % 0 mm
20:12 -14.3 °C -15.3 °C 34235.8 hPa SW 7.7 km/h 18.2 km/h 88 % 0 mm
20:17 -14.3 °C -15.3 °C 34235.8 hPa Calm   18.2 km/h 89 % 0 mm
20:22 -14.4 °C -15.3 °C 34235.8 hPa Calm   18.2 km/h 89 % 0 mm
20:32 -14.6 °C -15.4 °C 34235.8 hPa SW 5.1 km/h 12.9 km/h 90 % 0 mm
20:37 -14.6 °C -15.4 °C 34235.8 hPa SW 10.3 km/h 15.6 km/h 90 % 0 mm
20:42 -14.6 °C -15.4 °C 34246 hPa WSW 7.7 km/h 15.6 km/h 90 % 0 mm
20:52 -14.6 °C -15.4 °C 34246 hPa SW 7.7 km/h 10.3 km/h 91 % 0 mm
21:02 -14.6 °C -15.4 °C 34246 hPa WSW 2.6 km/h 10.3 km/h 91 % 0 mm
21:07 -14.7 °C -15.3 °C 34246 hPa South 5.1 km/h 10.3 km/h 92 % 0 mm
21:12 -14.7 °C -15.3 °C 34246 hPa SW 2.6 km/h 7.7 km/h 92 % 0 mm
21:17 -14.6 °C -15.3 °C 34246 hPa WSW 5.1 km/h 7.7 km/h 92 % 0 mm
21:22 -14.6 °C -15.3 °C 34246 hPa Calm   7.7 km/h 92 % 0 mm
21:27 -14.5 °C -15.3 °C 34246 hPa SW 5.1 km/h 10.3 km/h 91 % 0 mm
21:32 -14.4 °C -15.2 °C 34235.8 hPa WSW 2.6 km/h 10.3 km/h 91 % 0 mm
21:37 -14.4 °C -15.2 °C 34235.8 hPa SW 7.7 km/h 10.3 km/h 91 % 0 mm
21:42 -14.4 °C -15.2 °C 34235.8 hPa Calm   10.3 km/h 90 % 0 mm
21:47 -14.4 °C -15.2 °C 34235.8 hPa WSW 5.1 km/h 10.3 km/h 90 % 0 mm
21:52 -14.4 °C -15.2 °C 34235.8 hPa WSW 5.1 km/h 12.9 km/h 90 % 0 mm
21:57 -14.4 °C -15.2 °C 34235.8 hPa SW 10.3 km/h 15.6 km/h 90 % 0 mm
22:02 -14.4 °C -15.2 °C 34235.8 hPa SW 7.7 km/h 15.6 km/h 90 % 0 mm
22:07 -14.4 °C -15.3 °C 34235.8 hPa SW 7.7 km/h 15.6 km/h 90 % 0 mm
22:12 -14.5 °C -15.3 °C 34235.8 hPa SW 7.7 km/h 12.9 km/h 90 % 0 mm
22:17 -14.5 °C -15.3 °C 34235.8 hPa SW 7.7 km/h 12.9 km/h 90 % 0 mm
22:22 -14.5 °C -15.3 °C 34235.8 hPa WSW 2.6 km/h 12.9 km/h 90 % 0 mm
22:27 -14.5 °C -15.3 °C 34235.8 hPa SSW 7.7 km/h 10.3 km/h 90 % 0 mm
22:32 -14.5 °C -15.3 °C 34235.8 hPa SW 7.7 km/h 12.9 km/h 90 % 0 mm
22:37 -14.5 °C -15.3 °C 34222.3 hPa SW 10.3 km/h 12.9 km/h 90 % 0 mm
22:42 -14.4 °C -15.3 °C 34222.3 hPa SW 7.7 km/h 15.6 km/h 90 % 0 mm
22:47 -14.4 °C -15.3 °C 34222.3 hPa SSW 10.3 km/h 15.6 km/h 90 % 0 mm
22:52 -14.4 °C -15.2 °C 34222.3 hPa SSW 12.9 km/h 18.2 km/h 90 % 0 mm
22:57 -14.4 °C -15.2 °C 34222.3 hPa WSW 5.1 km/h 18.2 km/h 90 % 0 mm
23:02 -14.3 °C -15.2 °C 34212.1 hPa WSW 7.7 km/h 18.2 km/h 90 % 0 mm
23:07 -14.3 °C -15.2 °C 34212.1 hPa SW 7.7 km/h 15.6 km/h 90 % 0 mm
23:12 -14.3 °C -15.1 °C 34212.1 hPa WSW 2.6 km/h 15.6 km/h 90 % 0 mm
23:17 -14.2 °C -15.1 °C 34212.1 hPa WSW 10.3 km/h 15.6 km/h 90 % 0 mm
23:22 -14.2 °C -15 °C 34212.1 hPa SW 7.7 km/h 18.2 km/h 90 % 0 mm
23:27 -14.1 °C -14.9 °C 34198.6 hPa West 7.7 km/h 18.2 km/h 90 % 0 mm
23:32 -14.1 °C -14.9 °C 34198.6 hPa SSW 7.7 km/h 20.8 km/h 90 % 0 mm
23:37 -14.1 °C -15 °C 34198.6 hPa West 7.7 km/h 20.8 km/h 89 % 0 mm
23:42 -14.1 °C -15 °C 34188.4 hPa WSW 10.3 km/h 23.3 km/h 89 % 0 mm
23:52 -14.1 °C -15 °C 34188.4 hPa SW 10.3 km/h 23.3 km/h 89 % 0 mm
23:57 -14.1 °C -14.9 °C 34188.4 hPa SW 7.7 km/h 23.3 km/h 90 % 0 mm
Meteo18
Compliments of Weather Underground - 4 mb

Script developed by  Jim McMurry - jmcmurry@mwt.net Adapted for the template by  Wim van der Kuil - Leuven-Template.eu

You find our weather info also at:

European Weather Network

Weather Underground

Equipment we use:

Weather-station
Davis Vue

Weather-program
Meteobridge

Weather-server
Raspberry PI 2 B+

Provider
1 and 1

Davis Vue

Meteobridge

Raspberry PI 2 B+

1 and 1